sensor_id;sensor_type;location;lat;lon;timestamp;P1;durP1;ratioP1;P2;durP2;ratioP2
1703;SDS011;849;48.780;9.216;2023-01-25T00:01:43;45.50;;;2.70;;
1703;SDS011;849;48.780;9.216;2023-01-25T00:04:08;45.50;;;2.70;;
1703;SDS011;849;48.780;9.216;2023-01-25T00:06:34;45.30;;;2.70;;
1703;SDS011;849;48.780;9.216;2023-01-25T00:09:00;45.60;;;2.70;;
1703;SDS011;849;48.780;9.216;2023-01-25T00:11:26;45.60;;;2.80;;
1703;SDS011;849;48.780;9.216;2023-01-25T00:13:52;45.50;;;2.67;;
1703;SDS011;849;48.780;9.216;2023-01-25T00:16:18;45.60;;;2.73;;
1703;SDS011;849;48.780;9.216;2023-01-25T00:18:44;45.57;;;2.80;;
1703;SDS011;849;48.780;9.216;2023-01-25T00:21:14;45.70;;;3.17;;
1703;SDS011;849;48.780;9.216;2023-01-25T00:23:41;46.00;;;2.60;;
1703;SDS011;849;48.780;9.216;2023-01-25T00:26:07;45.87;;;2.70;;
1703;SDS011;849;48.780;9.216;2023-01-25T00:28:33;45.93;;;2.70;;
1703;SDS011;849;48.780;9.216;2023-01-25T00:30:59;46.00;;;2.63;;
1703;SDS011;849;48.780;9.216;2023-01-25T00:36:33;45.90;;;2.70;;
1703;SDS011;849;48.780;9.216;2023-01-25T00:39:05;46.00;;;2.80;;
1703;SDS011;849;48.780;9.216;2023-01-25T00:41:35;46.10;;;2.63;;
1703;SDS011;849;48.780;9.216;2023-01-25T00:44:01;46.57;;;2.80;;
1703;SDS011;849;48.780;9.216;2023-01-25T00:46:26;46.40;;;2.90;;
1703;SDS011;849;48.780;9.216;2023-01-25T00:48:52;46.37;;;2.83;;
1703;SDS011;849;48.780;9.216;2023-01-25T00:51:19;45.80;;;2.90;;
1703;SDS011;849;48.780;9.216;2023-01-25T00:53:45;46.17;;;2.80;;
1703;SDS011;849;48.780;9.216;2023-01-25T00:56:11;46.20;;;2.80;;
1703;SDS011;849;48.780;9.216;2023-01-25T00:58:37;46.20;;;2.70;;
1703;SDS011;849;48.780;9.216;2023-01-25T01:01:02;46.07;;;2.77;;
1703;SDS011;849;48.780;9.216;2023-01-25T01:03:28;46.17;;;2.63;;
1703;SDS011;849;48.780;9.216;2023-01-25T01:06:00;46.10;;;2.70;;
1703;SDS011;849;48.780;9.216;2023-01-25T01:08:28;46.00;;;2.80;;
1703;SDS011;849;48.780;9.216;2023-01-25T01:11:01;46.10;;;3.00;;
1703;SDS011;849;48.780;9.216;2023-01-25T01:13:28;46.00;;;2.70;;
1703;SDS011;849;48.780;9.216;2023-01-25T01:15:54;45.87;;;2.80;;
1703;SDS011;849;48.780;9.216;2023-01-25T01:18:20;45.67;;;2.63;;
1703;SDS011;849;48.780;9.216;2023-01-25T01:20:50;45.70;;;2.87;;
1703;SDS011;849;48.780;9.216;2023-01-25T01:23:17;45.60;;;2.53;;
1703;SDS011;849;48.780;9.216;2023-01-25T01:25:44;47.03;;;4.80;;
1703;SDS011;849;48.780;9.216;2023-01-25T01:28:11;45.90;;;2.80;;
1703;SDS011;849;48.780;9.216;2023-01-25T01:30:37;45.70;;;2.67;;
1703;SDS011;849;48.780;9.216;2023-01-25T01:33:04;46.00;;;2.70;;
1703;SDS011;849;48.780;9.216;2023-01-25T01:35:30;46.00;;;2.70;;
1703;SDS011;849;48.780;9.216;2023-01-25T01:37:57;46.00;;;2.70;;
1703;SDS011;849;48.780;9.216;2023-01-25T01:40:23;46.00;;;2.70;;
1703;SDS011;849;48.780;9.216;2023-01-25T01:43:05;46.20;;;2.80;;
1703;SDS011;849;48.780;9.216;2023-01-25T01:48:16;46.07;;;2.90;;
1703;SDS011;849;48.780;9.216;2023-01-25T01:51:04;46.00;;;2.70;;
1703;SDS011;849;48.780;9.216;2023-01-25T01:53:43;46.17;;;2.57;;
1703;SDS011;849;48.780;9.216;2023-01-25T01:56:13;46.20;;;2.73;;
1703;SDS011;849;48.780;9.216;2023-01-25T01:58:44;46.50;;;3.40;;
1703;SDS011;849;48.780;9.216;2023-01-25T02:01:11;47.17;;;4.50;;
1703;SDS011;849;48.780;9.216;2023-01-25T02:03:37;46.20;;;2.80;;
1703;SDS011;849;48.780;9.216;2023-01-25T02:07:06;46.40;;;2.80;;
1703;SDS011;849;48.780;9.216;2023-01-25T02:09:18;46.20;;;2.73;;
1703;SDS011;849;48.780;9.216;2023-01-25T02:11:47;46.47;;;3.77;;
1703;SDS011;849;48.780;9.216;2023-01-25T02:14:15;46.20;;;2.63;;
1703;SDS011;849;48.780;9.216;2023-01-25T02:16:41;46.27;;;2.80;;
1703;SDS011;849;48.780;9.216;2023-01-25T02:19:08;46.67;;;3.10;;
1703;SDS011;849;48.780;9.216;2023-01-25T02:21:47;46.27;;;2.93;;
1703;SDS011;849;48.780;9.216;2023-01-25T02:24:26;46.17;;;3.00;;
1703;SDS011;849;48.780;9.216;2023-01-25T02:26:56;45.80;;;2.80;;
1703;SDS011;849;48.780;9.216;2023-01-25T02:29:22;45.80;;;2.80;;
1703;SDS011;849;48.780;9.216;2023-01-25T02:31:50;45.70;;;2.67;;
1703;SDS011;849;48.780;9.216;2023-01-25T02:34:23;45.50;;;2.67;;
1703;SDS011;849;48.780;9.216;2023-01-25T02:36:49;46.07;;;4.30;;
1703;SDS011;849;48.780;9.216;2023-01-25T02:39:15;45.40;;;2.67;;
1703;SDS011;849;48.780;9.216;2023-01-25T02:41:43;45.50;;;2.60;;
1703;SDS011;849;48.780;9.216;2023-01-25T02:44:22;45.47;;;3.33;;
1703;SDS011;849;48.780;9.216;2023-01-25T02:46:51;45.00;;;2.50;;
1703;SDS011;849;48.780;9.216;2023-01-25T02:49:17;44.97;;;2.50;;
1703;SDS011;849;48.780;9.216;2023-01-25T02:51:44;44.90;;;2.50;;
1703;SDS011;849;48.780;9.216;2023-01-25T02:54:12;44.87;;;2.40;;
1703;SDS011;849;48.780;9.216;2023-01-25T02:56:39;44.87;;;2.50;;
1703;SDS011;849;48.780;9.216;2023-01-25T02:59:06;45.27;;;3.87;;
1703;SDS011;849;48.780;9.216;2023-01-25T03:01:35;44.67;;;2.40;;
1703;SDS011;849;48.780;9.216;2023-01-25T03:04:03;44.47;;;2.40;;
1703;SDS011;849;48.780;9.216;2023-01-25T03:06:29;44.30;;;2.57;;
1703;SDS011;849;48.780;9.216;2023-01-25T03:08:56;44.10;;;2.30;;
1703;SDS011;849;48.780;9.216;2023-01-25T03:11:21;44.10;;;2.30;;
1703;SDS011;849;48.780;9.216;2023-01-25T03:13:47;44.07;;;2.60;;
1703;SDS011;849;48.780;9.216;2023-01-25T03:16:13;43.80;;;2.30;;
1703;SDS011;849;48.780;9.216;2023-01-25T03:18:39;43.87;;;2.30;;
1703;SDS011;849;48.780;9.216;2023-01-25T03:21:12;43.60;;;2.20;;
1703;SDS011;849;48.780;9.216;2023-01-25T03:23:39;43.60;;;2.20;;
1703;SDS011;849;48.780;9.216;2023-01-25T03:28:36;43.43;;;2.20;;
1703;SDS011;849;48.780;9.216;2023-01-25T03:31:03;43.70;;;2.27;;
1703;SDS011;849;48.780;9.216;2023-01-25T03:33:29;43.63;;;2.20;;
1703;SDS011;849;48.780;9.216;2023-01-25T03:35:55;43.73;;;2.10;;
1703;SDS011;849;48.780;9.216;2023-01-25T03:38:21;43.60;;;2.20;;
1703;SDS011;849;48.780;9.216;2023-01-25T03:40:47;43.43;;;2.20;;
1703;SDS011;849;48.780;9.216;2023-01-25T03:43:13;43.40;;;2.57;;
1703;SDS011;849;48.780;9.216;2023-01-25T03:45:39;43.10;;;2.10;;
1703;SDS011;849;48.780;9.216;2023-01-25T03:48:05;42.87;;;1.97;;
1703;SDS011;849;48.780;9.216;2023-01-25T03:50:30;42.67;;;2.00;;
1703;SDS011;849;48.780;9.216;2023-01-25T03:52:57;42.43;;;2.10;;
1703;SDS011;849;48.780;9.216;2023-01-25T03:55:31;42.27;;;2.00;;
1703;SDS011;849;48.780;9.216;2023-01-25T03:57:59;42.37;;;2.00;;
1703;SDS011;849;48.780;9.216;2023-01-25T04:00:25;42.17;;;2.00;;
1703;SDS011;849;48.780;9.216;2023-01-25T04:02:51;42.53;;;2.67;;
1703;SDS011;849;48.780;9.216;2023-01-25T04:05:17;42.37;;;2.10;;
1703;SDS011;849;48.780;9.216;2023-01-25T04:07:42;42.40;;;2.00;;
1703;SDS011;849;48.780;9.216;2023-01-25T04:10:08;42.77;;;2.00;;
1703;SDS011;849;48.780;9.216;2023-01-25T04:12:34;42.97;;;2.10;;
1703;SDS011;849;48.780;9.216;2023-01-25T04:15:00;43.07;;;2.07;;
1703;SDS011;849;48.780;9.216;2023-01-25T04:17:25;42.83;;;2.10;;
1703;SDS011;849;48.780;9.216;2023-01-25T04:19:51;42.97;;;2.20;;
1703;SDS011;849;48.780;9.216;2023-01-25T04:22:17;42.67;;;1.93;;
1703;SDS011;849;48.780;9.216;2023-01-25T04:24:42;42.17;;;2.00;;
1703;SDS011;849;48.780;9.216;2023-01-25T04:27:08;42.93;;;2.97;;
1703;SDS011;849;48.780;9.216;2023-01-25T04:29:34;42.87;;;2.00;;
1703;SDS011;849;48.780;9.216;2023-01-25T04:32:00;43.17;;;2.30;;
1703;SDS011;849;48.780;9.216;2023-01-25T04:34:26;43.00;;;2.10;;
1703;SDS011;849;48.780;9.216;2023-01-25T04:36:51;43.20;;;2.20;;
1703;SDS011;849;48.780;9.216;2023-01-25T04:39:17;43.37;;;2.10;;
1703;SDS011;849;48.780;9.216;2023-01-25T04:41:43;43.27;;;2.20;;
1703;SDS011;849;48.780;9.216;2023-01-25T04:44:09;43.07;;;2.00;;
1703;SDS011;849;48.780;9.216;2023-01-25T04:46:34;43.40;;;2.10;;
1703;SDS011;849;48.780;9.216;2023-01-25T04:49:00;43.27;;;2.20;;
1703;SDS011;849;48.780;9.216;2023-01-25T04:51:26;43.33;;;2.20;;
1703;SDS011;849;48.780;9.216;2023-01-25T04:53:51;43.30;;;2.20;;
1703;SDS011;849;48.780;9.216;2023-01-25T04:56:17;43.20;;;2.17;;
1703;SDS011;849;48.780;9.216;2023-01-25T04:58:43;43.30;;;2.10;;
1703;SDS011;849;48.780;9.216;2023-01-25T05:01:08;43.20;;;2.10;;
1703;SDS011;849;48.780;9.216;2023-01-25T05:03:34;43.47;;;2.20;;
1703;SDS011;849;48.780;9.216;2023-01-25T05:06:00;43.60;;;2.20;;
1703;SDS011;849;48.780;9.216;2023-01-25T05:08:25;43.67;;;2.20;;
1703;SDS011;849;48.780;9.216;2023-01-25T05:10:51;43.90;;;2.20;;
1703;SDS011;849;48.780;9.216;2023-01-25T05:13:16;44.40;;;2.10;;
1703;SDS011;849;48.780;9.216;2023-01-25T05:15:42;45.33;;;3.87;;
1703;SDS011;849;48.780;9.216;2023-01-25T05:18:08;44.90;;;2.60;;
1703;SDS011;849;48.780;9.216;2023-01-25T05:20:34;45.50;;;3.90;;
1703;SDS011;849;48.780;9.216;2023-01-25T05:23:00;45.30;;;2.67;;
1703;SDS011;849;48.780;9.216;2023-01-25T05:25:25;45.00;;;2.60;;
1703;SDS011;849;48.780;9.216;2023-01-25T05:28:10;45.00;;;2.87;;
1703;SDS011;849;48.780;9.216;2023-01-25T05:30:35;45.10;;;2.77;;
1703;SDS011;849;48.780;9.216;2023-01-25T05:33:01;45.00;;;2.60;;
1703;SDS011;849;48.780;9.216;2023-01-25T05:35:26;44.90;;;2.50;;
1703;SDS011;849;48.780;9.216;2023-01-25T05:37:58;44.77;;;2.70;;
1703;SDS011;849;48.780;9.216;2023-01-25T05:40:24;47.10;;;4.27;;
1703;SDS011;849;48.780;9.216;2023-01-25T05:42:57;44.50;;;3.50;;
1703;SDS011;849;48.780;9.216;2023-01-25T05:45:24;44.20;;;2.33;;
1703;SDS011;849;48.780;9.216;2023-01-25T05:47:53;44.23;;;3.00;;
1703;SDS011;849;48.780;9.216;2023-01-25T05:50:20;45.60;;;4.40;;
1703;SDS011;849;48.780;9.216;2023-01-25T05:52:46;43.80;;;2.37;;
1703;SDS011;849;48.780;9.216;2023-01-25T05:55:12;44.13;;;2.93;;
1703;SDS011;849;48.780;9.216;2023-01-25T05:57:37;44.10;;;3.03;;
1703;SDS011;849;48.780;9.216;2023-01-25T06:00:04;43.80;;;2.67;;
1703;SDS011;849;48.780;9.216;2023-01-25T06:02:34;43.97;;;2.30;;
1703;SDS011;849;48.780;9.216;2023-01-25T06:04:59;43.80;;;2.20;;
1703;SDS011;849;48.780;9.216;2023-01-25T06:07:25;44.23;;;2.70;;
1703;SDS011;849;48.780;9.216;2023-01-25T06:09:50;44.20;;;2.40;;
1703;SDS011;849;48.780;9.216;2023-01-25T06:12:19;44.30;;;2.40;;
1703;SDS011;849;48.780;9.216;2023-01-25T06:14:45;44.40;;;2.40;;
1703;SDS011;849;48.780;9.216;2023-01-25T06:17:11;44.60;;;2.40;;
1703;SDS011;849;48.780;9.216;2023-01-25T06:19:37;44.60;;;2.43;;
1703;SDS011;849;48.780;9.216;2023-01-25T06:22:03;45.00;;;2.93;;
1703;SDS011;849;48.780;9.216;2023-01-25T06:24:29;45.10;;;2.50;;
1703;SDS011;849;48.780;9.216;2023-01-25T06:26:55;44.90;;;2.50;;
1703;SDS011;849;48.780;9.216;2023-01-25T06:29:21;44.80;;;2.50;;
1703;SDS011;849;48.780;9.216;2023-01-25T06:31:46;45.13;;;2.50;;
1703;SDS011;849;48.780;9.216;2023-01-25T06:34:12;45.40;;;2.70;;
1703;SDS011;849;48.780;9.216;2023-01-25T06:36:37;45.20;;;2.50;;
1703;SDS011;849;48.780;9.216;2023-01-25T06:39:03;45.50;;;2.60;;
1703;SDS011;849;48.780;9.216;2023-01-25T06:41:29;45.60;;;2.60;;
1703;SDS011;849;48.780;9.216;2023-01-25T06:43:54;45.60;;;2.80;;
1703;SDS011;849;48.780;9.216;2023-01-25T06:46:20;46.10;;;3.20;;
1703;SDS011;849;48.780;9.216;2023-01-25T06:48:46;45.83;;;2.70;;
1703;SDS011;849;48.780;9.216;2023-01-25T06:51:12;45.87;;;2.70;;
1703;SDS011;849;48.780;9.216;2023-01-25T06:53:42;46.00;;;2.70;;
1703;SDS011;849;48.780;9.216;2023-01-25T06:56:13;46.10;;;2.83;;
1703;SDS011;849;48.780;9.216;2023-01-25T06:58:41;50.20;;;3.10;;
1703;SDS011;849;48.780;9.216;2023-01-25T07:03:46;46.90;;;2.90;;
1703;SDS011;849;48.780;9.216;2023-01-25T07:06:17;46.87;;;3.10;;
1703;SDS011;849;48.780;9.216;2023-01-25T07:08:43;47.00;;;2.97;;
1703;SDS011;849;48.780;9.216;2023-01-25T07:11:09;47.10;;;3.00;;
1703;SDS011;849;48.780;9.216;2023-01-25T07:13:38;46.90;;;2.93;;
1703;SDS011;849;48.780;9.216;2023-01-25T07:16:10;47.30;;;2.90;;
1703;SDS011;849;48.780;9.216;2023-01-25T07:18:38;47.10;;;3.00;;
1703;SDS011;849;48.780;9.216;2023-01-25T07:21:09;51.00;;;3.20;;
1703;SDS011;849;48.780;9.216;2023-01-25T07:23:34;47.60;;;3.07;;
1703;SDS011;849;48.780;9.216;2023-01-25T07:26:02;47.50;;;2.97;;
1703;SDS011;849;48.780;9.216;2023-01-25T07:28:30;47.70;;;2.90;;
1703;SDS011;849;48.780;9.216;2023-01-25T07:31:02;47.60;;;3.13;;
1703;SDS011;849;48.780;9.216;2023-01-25T07:33:30;47.97;;;3.33;;
1703;SDS011;849;48.780;9.216;2023-01-25T07:36:00;47.90;;;3.73;;
1703;SDS011;849;48.780;9.216;2023-01-25T07:38:26;47.80;;;3.30;;
1703;SDS011;849;48.780;9.216;2023-01-25T07:40:52;47.80;;;3.30;;
1703;SDS011;849;48.780;9.216;2023-01-25T07:43:18;47.80;;;3.27;;
1703;SDS011;849;48.780;9.216;2023-01-25T07:45:45;51.17;;;3.40;;
1703;SDS011;849;48.780;9.216;2023-01-25T07:48:13;48.00;;;3.30;;
1703;SDS011;849;48.780;9.216;2023-01-25T07:50:40;47.70;;;3.33;;
1703;SDS011;849;48.780;9.216;2023-01-25T07:53:08;47.70;;;3.30;;
1703;SDS011;849;48.780;9.216;2023-01-25T07:55:34;47.80;;;3.23;;
1703;SDS011;849;48.780;9.216;2023-01-25T07:58:00;48.10;;;3.53;;
1703;SDS011;849;48.780;9.216;2023-01-25T08:00:26;48.87;;;4.23;;
1703;SDS011;849;48.780;9.216;2023-01-25T08:02:52;47.80;;;3.30;;
1703;SDS011;849;48.780;9.216;2023-01-25T08:05:18;47.70;;;3.23;;
1703;SDS011;849;48.780;9.216;2023-01-25T08:07:44;47.90;;;3.27;;
1703;SDS011;849;48.780;9.216;2023-01-25T08:10:10;47.80;;;3.20;;
1703;SDS011;849;48.780;9.216;2023-01-25T08:12:36;48.00;;;3.10;;
1703;SDS011;849;48.780;9.216;2023-01-25T08:15:02;47.80;;;3.10;;
1703;SDS011;849;48.780;9.216;2023-01-25T08:17:28;47.87;;;3.10;;
1703;SDS011;849;48.780;9.216;2023-01-25T08:20:00;48.20;;;3.30;;
1703;SDS011;849;48.780;9.216;2023-01-25T08:22:26;48.10;;;3.20;;
1703;SDS011;849;48.780;9.216;2023-01-25T08:24:52;48.20;;;3.20;;
1703;SDS011;849;48.780;9.216;2023-01-25T08:27:19;48.30;;;3.40;;
1703;SDS011;849;48.780;9.216;2023-01-25T08:29:45;48.30;;;3.40;;
1703;SDS011;849;48.780;9.216;2023-01-25T08:32:11;51.90;;;3.50;;
1703;SDS011;849;48.780;9.216;2023-01-25T08:34:37;48.40;;;3.40;;
1703;SDS011;849;48.780;9.216;2023-01-25T08:37:03;48.40;;;3.30;;
1703;SDS011;849;48.780;9.216;2023-01-25T08:39:29;48.40;;;3.37;;
1703;SDS011;849;48.780;9.216;2023-01-25T08:41:55;48.50;;;3.27;;
1703;SDS011;849;48.780;9.216;2023-01-25T08:44:20;48.50;;;3.60;;
1703;SDS011;849;48.780;9.216;2023-01-25T08:46:48;48.30;;;3.50;;
1703;SDS011;849;48.780;9.216;2023-01-25T08:49:14;48.40;;;3.40;;
1703;SDS011;849;48.780;9.216;2023-01-25T08:51:40;48.63;;;3.77;;
1703;SDS011;849;48.780;9.216;2023-01-25T08:54:06;48.50;;;3.40;;
1703;SDS011;849;48.780;9.216;2023-01-25T08:56:38;48.40;;;3.27;;
1703;SDS011;849;48.780;9.216;2023-01-25T08:59:05;48.60;;;3.70;;
1703;SDS011;849;48.780;9.216;2023-01-25T09:01:31;48.50;;;3.30;;
1703;SDS011;849;48.780;9.216;2023-01-25T09:03:56;48.40;;;3.27;;
1703;SDS011;849;48.780;9.216;2023-01-25T09:06:22;48.60;;;3.30;;
1703;SDS011;849;48.780;9.216;2023-01-25T09:08:48;48.50;;;3.37;;
1703;SDS011;849;48.780;9.216;2023-01-25T09:11:20;48.50;;;3.40;;
1703;SDS011;849;48.780;9.216;2023-01-25T09:13:46;48.40;;;3.27;;
1703;SDS011;849;48.780;9.216;2023-01-25T09:16:20;48.17;;;3.40;;
1703;SDS011;849;48.780;9.216;2023-01-25T09:18:52;48.50;;;3.47;;
1703;SDS011;849;48.780;9.216;2023-01-25T09:21:19;48.00;;;3.53;;
1703;SDS011;849;48.780;9.216;2023-01-25T09:23:48;48.50;;;3.50;;
1703;SDS011;849;48.780;9.216;2023-01-25T09:26:15;48.30;;;3.30;;
1703;SDS011;849;48.780;9.216;2023-01-25T09:28:41;48.60;;;3.33;;
1703;SDS011;849;48.780;9.216;2023-01-25T09:31:10;48.30;;;3.40;;
1703;SDS011;849;48.780;9.216;2023-01-25T09:33:36;48.20;;;3.40;;
1703;SDS011;849;48.780;9.216;2023-01-25T09:36:03;48.50;;;3.47;;
1703;SDS011;849;48.780;9.216;2023-01-25T09:38:30;48.40;;;3.67;;
1703;SDS011;849;48.780;9.216;2023-01-25T09:43:46;48.60;;;3.43;;
1703;SDS011;849;48.780;9.216;2023-01-25T09:51:45;48.20;;;3.40;;
1703;SDS011;849;48.780;9.216;2023-01-25T09:54:27;48.40;;;3.37;;
1703;SDS011;849;48.780;9.216;2023-01-25T09:56:55;48.50;;;3.50;;
1703;SDS011;849;48.780;9.216;2023-01-25T09:59:23;48.40;;;3.50;;
1703;SDS011;849;48.780;9.216;2023-01-25T10:01:57;48.30;;;3.27;;
1703;SDS011;849;48.780;9.216;2023-01-25T10:04:33;48.30;;;3.27;;
1703;SDS011;849;48.780;9.216;2023-01-25T10:07:24;48.30;;;3.47;;
1703;SDS011;849;48.780;9.216;2023-01-25T10:10:11;48.00;;;3.20;;
1703;SDS011;849;48.780;9.216;2023-01-25T10:12:43;47.90;;;3.50;;
1703;SDS011;849;48.780;9.216;2023-01-25T10:15:16;47.80;;;3.10;;
1703;SDS011;849;48.780;9.216;2023-01-25T10:20:56;47.90;;;3.20;;
1703;SDS011;849;48.780;9.216;2023-01-25T10:23:40;47.90;;;3.30;;
1703;SDS011;849;48.780;9.216;2023-01-25T10:26:24;47.73;;;3.30;;
1703;SDS011;849;48.780;9.216;2023-01-25T10:29:11;48.20;;;3.57;;
1703;SDS011;849;48.780;9.216;2023-01-25T10:31:54;48.10;;;3.40;;
1703;SDS011;849;48.780;9.216;2023-01-25T10:34:30;48.10;;;3.20;;
1703;SDS011;849;48.780;9.216;2023-01-25T10:37:01;47.90;;;3.10;;
1703;SDS011;849;48.780;9.216;2023-01-25T10:39:34;47.87;;;3.30;;
1703;SDS011;849;48.780;9.216;2023-01-25T10:42:07;47.90;;;3.20;;
1703;SDS011;849;48.780;9.216;2023-01-25T10:44:36;48.00;;;3.20;;
1703;SDS011;849;48.780;9.216;2023-01-25T10:49:55;47.90;;;3.10;;
1703;SDS011;849;48.780;9.216;2023-01-25T10:52:24;47.90;;;3.30;;
1703;SDS011;849;48.780;9.216;2023-01-25T10:55:17;48.00;;;3.30;;
1703;SDS011;849;48.780;9.216;2023-01-25T10:57:54;47.70;;;3.27;;
1703;SDS011;849;48.780;9.216;2023-01-25T11:00:30;48.00;;;3.60;;
1703;SDS011;849;48.780;9.216;2023-01-25T11:03:02;48.30;;;4.10;;
1703;SDS011;849;48.780;9.216;2023-01-25T11:05:35;47.60;;;3.20;;
1703;SDS011;849;48.780;9.216;2023-01-25T11:10:56;48.40;;;3.40;;
1703;SDS011;849;48.780;9.216;2023-01-25T11:13:24;48.40;;;3.30;;
1703;SDS011;849;48.780;9.216;2023-01-25T11:18:30;48.20;;;3.50;;
1703;SDS011;849;48.780;9.216;2023-01-25T11:21:10;48.20;;;3.50;;
1703;SDS011;849;48.780;9.216;2023-01-25T11:23:40;48.00;;;3.30;;
1703;SDS011;849;48.780;9.216;2023-01-25T11:26:13;48.10;;;3.20;;
1703;SDS011;849;48.780;9.216;2023-01-25T11:28:41;48.00;;;3.20;;
1703;SDS011;849;48.780;9.216;2023-01-25T11:31:12;48.20;;;3.40;;
1703;SDS011;849;48.780;9.216;2023-01-25T11:33:39;48.20;;;3.43;;
1703;SDS011;849;48.780;9.216;2023-01-25T11:41:23;48.20;;;3.30;;
1703;SDS011;849;48.780;9.216;2023-01-25T11:54:42;48.30;;;4.70;;
1703;SDS011;849;48.780;9.216;2023-01-25T12:03:11;48.20;;;3.20;;
1703;SDS011;849;48.780;9.216;2023-01-25T12:11:13;48.10;;;3.30;;
1703;SDS011;849;48.780;9.216;2023-01-25T12:21:40;48.30;;;3.30;;
1703;SDS011;849;48.780;9.216;2023-01-25T12:32:36;48.53;;;3.70;;
1703;SDS011;849;48.780;9.216;2023-01-25T12:35:29;48.07;;;3.30;;
1703;SDS011;849;48.780;9.216;2023-01-25T12:38:02;48.17;;;3.40;;
1703;SDS011;849;48.780;9.216;2023-01-25T12:40:41;48.20;;;3.33;;
1703;SDS011;849;48.780;9.216;2023-01-25T12:43:14;48.10;;;3.20;;
1703;SDS011;849;48.780;9.216;2023-01-25T12:45:45;48.00;;;2.90;;
1703;SDS011;849;48.780;9.216;2023-01-25T12:50:51;47.90;;;3.10;;
1703;SDS011;849;48.780;9.216;2023-01-25T12:56:08;48.30;;;3.20;;
1703;SDS011;849;48.780;9.216;2023-01-25T12:58:43;48.40;;;3.27;;
1703;SDS011;849;48.780;9.216;2023-01-25T13:01:34;48.30;;;3.37;;
1703;SDS011;849;48.780;9.216;2023-01-25T13:07:11;48.37;;;3.30;;
1703;SDS011;849;48.780;9.216;2023-01-25T13:09:55;48.30;;;3.23;;
1703;SDS011;849;48.780;9.216;2023-01-25T13:12:25;48.60;;;3.60;;
1703;SDS011;849;48.780;9.216;2023-01-25T13:14:51;48.50;;;3.37;;
1703;SDS011;849;48.780;9.216;2023-01-25T13:17:32;48.60;;;3.40;;
1703;SDS011;849;48.780;9.216;2023-01-25T13:20:10;48.60;;;3.30;;
1703;SDS011;849;48.780;9.216;2023-01-25T13:23:28;50.10;;;4.77;;
1703;SDS011;849;48.780;9.216;2023-01-25T13:26:32;48.60;;;3.50;;
1703;SDS011;849;48.780;9.216;2023-01-25T13:28:46;48.47;;;3.37;;
1703;SDS011;849;48.780;9.216;2023-01-25T13:34:10;48.40;;;3.40;;
1703;SDS011;849;48.780;9.216;2023-01-25T13:36:57;48.60;;;3.90;;
1703;SDS011;849;48.780;9.216;2023-01-25T13:42:04;48.30;;;3.40;;
1703;SDS011;849;48.780;9.216;2023-01-25T13:45:02;48.40;;;3.47;;
1703;SDS011;849;48.780;9.216;2023-01-25T13:47:39;48.50;;;3.50;;
1703;SDS011;849;48.780;9.216;2023-01-25T13:52:38;48.30;;;3.63;;
1703;SDS011;849;48.780;9.216;2023-01-25T13:55:24;48.40;;;3.50;;
1703;SDS011;849;48.780;9.216;2023-01-25T13:57:50;48.40;;;3.53;;
1703;SDS011;849;48.780;9.216;2023-01-25T14:00:16;48.30;;;3.50;;
1703;SDS011;849;48.780;9.216;2023-01-25T14:02:45;48.30;;;3.17;;
1703;SDS011;849;48.780;9.216;2023-01-25T14:05:21;48.37;;;3.60;;
1703;SDS011;849;48.780;9.216;2023-01-25T14:07:50;48.40;;;3.40;;
1703;SDS011;849;48.780;9.216;2023-01-25T14:10:20;48.30;;;3.40;;
1703;SDS011;849;48.780;9.216;2023-01-25T14:12:48;48.30;;;3.57;;
1703;SDS011;849;48.780;9.216;2023-01-25T14:15:20;48.20;;;3.40;;
1703;SDS011;849;48.780;9.216;2023-01-25T14:21:11;48.40;;;3.37;;
1703;SDS011;849;48.780;9.216;2023-01-25T14:23:43;48.40;;;3.50;;
1703;SDS011;849;48.780;9.216;2023-01-25T14:26:14;48.40;;;3.40;;
1703;SDS011;849;48.780;9.216;2023-01-25T14:28:51;48.20;;;3.20;;
1703;SDS011;849;48.780;9.216;2023-01-25T14:31:26;48.30;;;3.50;;
1703;SDS011;849;48.780;9.216;2023-01-25T14:33:56;48.37;;;3.23;;
1703;SDS011;849;48.780;9.216;2023-01-25T14:36:26;48.23;;;3.40;;
1703;SDS011;849;48.780;9.216;2023-01-25T14:38:55;48.37;;;3.27;;
1703;SDS011;849;48.780;9.216;2023-01-25T14:41:24;48.20;;;3.67;;
1703;SDS011;849;48.780;9.216;2023-01-25T14:43:57;48.40;;;3.47;;
1703;SDS011;849;48.780;9.216;2023-01-25T14:46:30;48.30;;;3.17;;
1703;SDS011;849;48.780;9.216;2023-01-25T14:51:33;48.30;;;3.20;;
1703;SDS011;849;48.780;9.216;2023-01-25T14:54:14;48.40;;;3.50;;
1703;SDS011;849;48.780;9.216;2023-01-25T14:56:42;48.33;;;3.20;;
1703;SDS011;849;48.780;9.216;2023-01-25T15:01:57;48.40;;;3.40;;
1703;SDS011;849;48.780;9.216;2023-01-25T15:04:28;48.40;;;3.33;;
1703;SDS011;849;48.780;9.216;2023-01-25T15:06:55;48.37;;;3.40;;
1703;SDS011;849;48.780;9.216;2023-01-25T15:09:31;48.37;;;3.40;;
1703;SDS011;849;48.780;9.216;2023-01-25T15:12:03;48.40;;;3.10;;
1703;SDS011;849;48.780;9.216;2023-01-25T15:14:50;48.30;;;3.60;;
1703;SDS011;849;48.780;9.216;2023-01-25T15:20:29;48.40;;;3.30;;
1703;SDS011;849;48.780;9.216;2023-01-25T15:22:55;48.50;;;3.50;;
1703;SDS011;849;48.780;9.216;2023-01-25T15:25:24;48.30;;;3.23;;
1703;SDS011;849;48.780;9.216;2023-01-25T15:27:49;48.20;;;3.37;;
1703;SDS011;849;48.780;9.216;2023-01-25T15:30:16;48.30;;;3.30;;
1703;SDS011;849;48.780;9.216;2023-01-25T15:32:43;48.20;;;3.20;;
1703;SDS011;849;48.780;9.216;2023-01-25T15:35:13;48.40;;;3.33;;
1703;SDS011;849;48.780;9.216;2023-01-25T15:37:42;48.67;;;3.63;;
1703;SDS011;849;48.780;9.216;2023-01-25T15:40:08;48.20;;;3.33;;
1703;SDS011;849;48.780;9.216;2023-01-25T15:42:36;48.40;;;3.30;;
1703;SDS011;849;48.780;9.216;2023-01-25T15:45:02;48.50;;;3.50;;
1703;SDS011;849;48.780;9.216;2023-01-25T15:47:28;48.40;;;3.40;;
1703;SDS011;849;48.780;9.216;2023-01-25T15:49:54;48.40;;;3.50;;
1703;SDS011;849;48.780;9.216;2023-01-25T15:52:20;48.40;;;3.30;;
1703;SDS011;849;48.780;9.216;2023-01-25T15:54:45;48.50;;;3.50;;
1703;SDS011;849;48.780;9.216;2023-01-25T15:57:15;48.40;;;3.50;;
1703;SDS011;849;48.780;9.216;2023-01-25T15:59:44;48.40;;;3.40;;
1703;SDS011;849;48.780;9.216;2023-01-25T16:02:10;48.20;;;3.50;;
1703;SDS011;849;48.780;9.216;2023-01-25T16:04:37;48.40;;;3.40;;
1703;SDS011;849;48.780;9.216;2023-01-25T16:07:03;48.20;;;3.37;;
1703;SDS011;849;48.780;9.216;2023-01-25T16:09:29;48.47;;;3.40;;
1703;SDS011;849;48.780;9.216;2023-01-25T16:11:58;48.63;;;3.70;;
1703;SDS011;849;48.780;9.216;2023-01-25T16:14:25;51.40;;;3.30;;
1703;SDS011;849;48.780;9.216;2023-01-25T16:16:53;48.10;;;3.13;;
1703;SDS011;849;48.780;9.216;2023-01-25T16:19:21;48.00;;;3.27;;
1703;SDS011;849;48.780;9.216;2023-01-25T16:21:47;48.10;;;3.30;;
1703;SDS011;849;48.780;9.216;2023-01-25T16:24:14;48.00;;;3.27;;
1703;SDS011;849;48.780;9.216;2023-01-25T16:26:44;48.20;;;3.50;;
1703;SDS011;849;48.780;9.216;2023-01-25T16:29:15;48.00;;;3.10;;
1703;SDS011;849;48.780;9.216;2023-01-25T16:31:41;48.10;;;3.30;;
1703;SDS011;849;48.780;9.216;2023-01-25T16:34:06;47.90;;;3.30;;
1703;SDS011;849;48.780;9.216;2023-01-25T16:36:32;48.07;;;3.60;;
1703;SDS011;849;48.780;9.216;2023-01-25T16:39:05;48.00;;;3.30;;
1703;SDS011;849;48.780;9.216;2023-01-25T16:41:34;48.00;;;3.30;;
1703;SDS011;849;48.780;9.216;2023-01-25T16:43:59;48.00;;;3.20;;
1703;SDS011;849;48.780;9.216;2023-01-25T16:46:25;48.20;;;3.70;;
1703;SDS011;849;48.780;9.216;2023-01-25T16:48:51;47.97;;;3.20;;
1703;SDS011;849;48.780;9.216;2023-01-25T16:53:47;48.17;;;3.27;;
1703;SDS011;849;48.780;9.216;2023-01-25T16:56:17;48.00;;;3.50;;
1703;SDS011;849;48.780;9.216;2023-01-25T16:58:44;48.10;;;3.20;;
1703;SDS011;849;48.780;9.216;2023-01-25T17:01:10;48.10;;;3.13;;
1703;SDS011;849;48.780;9.216;2023-01-25T17:03:37;47.70;;;3.00;;
1703;SDS011;849;48.780;9.216;2023-01-25T17:06:03;47.70;;;3.10;;
1703;SDS011;849;48.780;9.216;2023-01-25T17:08:29;48.00;;;3.07;;
1703;SDS011;849;48.780;9.216;2023-01-25T17:10:55;48.00;;;3.30;;
1703;SDS011;849;48.780;9.216;2023-01-25T17:13:22;47.90;;;3.23;;